Terminal Aerodrome Forecast
Issued by NWS Jackson, MS

Home | Current Version | Previous Version | Text Only | Print | Product List | Glossary On
Versions: 1 2 3 4 5 6 7 8 9 10 11 12 13
000
FTUS44 KJAN 301742
TAFMEI
TAF
KMEI 301742Z 3018/3118 29006KT P6SM VCSH SCT020 BKN030 BKN050
     FM302300 VRB03KT P6SM SCT030 SCT050
     FM310930 18004KT 6SM BR BKN019 OVC030
     FM311500 23008KT P6SM BKN025 BKN050=

USA.gov is the U.S. government's official web portal to all federal, state and local government web resources and services.